sensor_id;sensor_type;location;lat;lon;timestamp;pressure;altitude;pressure_sealevel;temperature;humidity
65718;BME280;52445;52.466;-1.016;2022-08-21T00:00:19;100060.28;;;17.27;57.49
65718;BME280;52445;52.466;-1.016;2022-08-21T00:02:57;100061.28;;;17.23;57.85
65718;BME280;52445;52.466;-1.016;2022-08-21T00:05:25;100053.56;;;17.18;58.38
65718;BME280;52445;52.466;-1.016;2022-08-21T00:07:52;100058.03;;;17.14;58.48
65718;BME280;52445;52.466;-1.016;2022-08-21T00:10:19;100055.50;;;17.11;58.25
65718;BME280;52445;52.466;-1.016;2022-08-21T00:12:46;100054.69;;;17.09;58.17
65718;BME280;52445;52.466;-1.016;2022-08-21T00:15:16;100063.44;;;17.08;57.92
65718;BME280;52445;52.466;-1.016;2022-08-21T00:17:43;100060.88;;;17.05;58.19
65718;BME280;52445;52.466;-1.016;2022-08-21T00:20:13;100049.63;;;17.03;58.22
65718;BME280;52445;52.466;-1.016;2022-08-21T00:22:42;100048.00;;;16.99;58.18
65718;BME280;52445;52.466;-1.016;2022-08-21T00:25:12;100048.97;;;16.96;58.47
65718;BME280;52445;52.466;-1.016;2022-08-21T00:27:40;100041.75;;;16.73;59.00
65718;BME280;52445;52.466;-1.016;2022-08-21T00:30:12;100044.94;;;16.84;58.50
65718;BME280;52445;52.466;-1.016;2022-08-21T00:32:49;100043.22;;;16.83;59.36
65718;BME280;52445;52.466;-1.016;2022-08-21T00:35:20;100042.44;;;16.79;58.80
65718;BME280;52445;52.466;-1.016;2022-08-21T00:37:48;100037.31;;;16.76;59.79
65718;BME280;52445;52.466;-1.016;2022-08-21T00:40:19;100037.34;;;16.75;59.14
65718;BME280;52445;52.466;-1.016;2022-08-21T00:42:47;100031.34;;;16.71;58.96
65718;BME280;52445;52.466;-1.016;2022-08-21T00:45:20;100029.69;;;16.68;59.19
65718;BME280;52445;52.466;-1.016;2022-08-21T00:47:48;100027.97;;;16.67;59.67
65718;BME280;52445;52.466;-1.016;2022-08-21T00:50:15;100038.50;;;16.64;59.28
65718;BME280;52445;52.466;-1.016;2022-08-21T00:52:50;100036.81;;;16.63;59.74
65718;BME280;52445;52.466;-1.016;2022-08-21T00:55:18;100035.97;;;16.61;59.48
65718;BME280;52445;52.466;-1.016;2022-08-21T00:57:51;100031.72;;;16.57;59.68
65718;BME280;52445;52.466;-1.016;2022-08-21T01:00:22;100027.41;;;16.56;59.74
65718;BME280;52445;52.466;-1.016;2022-08-21T01:02:49;100034.44;;;16.54;60.42
65718;BME280;52445;52.466;-1.016;2022-08-21T01:05:16;100026.69;;;16.51;60.02
65718;BME280;52445;52.466;-1.016;2022-08-21T01:07:43;100025.03;;;16.47;59.88
65718;BME280;52445;52.466;-1.016;2022-08-21T01:10:11;100026.84;;;16.44;60.00
65718;BME280;52445;52.466;-1.016;2022-08-21T01:12:52;100025.22;;;16.40;60.33
65718;BME280;52445;52.466;-1.016;2022-08-21T01:15:23;100021.78;;;16.38;60.77
65718;BME280;52445;52.466;-1.016;2022-08-21T01:17:51;100020.16;;;16.34;60.33
65718;BME280;52445;52.466;-1.016;2022-08-21T01:20:17;100021.97;;;16.32;60.67
65718;BME280;52445;52.466;-1.016;2022-08-21T01:22:44;100028.97;;;16.30;60.63
65718;BME280;52445;52.466;-1.016;2022-08-21T01:25:13;100024.69;;;16.27;60.43
65718;BME280;52445;52.466;-1.016;2022-08-21T01:27:42;100017.75;;;16.26;60.61
65718;BME280;52445;52.466;-1.016;2022-08-21T01:30:14;100017.84;;;16.23;61.24
65718;BME280;52445;52.466;-1.016;2022-08-21T01:32:41;100012.72;;;16.18;60.86
65718;BME280;52445;52.466;-1.016;2022-08-21T01:35:08;100022.38;;;16.16;61.28
65718;BME280;52445;52.466;-1.016;2022-08-21T01:37:35;100022.38;;;16.16;61.15
65718;BME280;52445;52.466;-1.016;2022-08-21T01:40:04;100025.06;;;16.13;61.50
65718;BME280;52445;52.466;-1.016;2022-08-21T01:42:31;100012.06;;;16.10;61.34
65718;BME280;52445;52.466;-1.016;2022-08-21T01:44:58;100026.03;;;16.09;61.45
65718;BME280;52445;52.466;-1.016;2022-08-21T01:47:25;100019.13;;;16.08;61.80
65718;BME280;52445;52.466;-1.016;2022-08-21T01:49:52;100026.13;;;16.06;62.18
65718;BME280;52445;52.466;-1.016;2022-08-21T01:52:18;100015.66;;;16.06;61.66
65718;BME280;52445;52.466;-1.016;2022-08-21T01:54:45;100013.97;;;16.05;62.15
65718;BME280;52445;52.466;-1.016;2022-08-21T01:57:20;100018.41;;;16.01;62.22
65718;BME280;52445;52.466;-1.016;2022-08-21T01:59:48;100021.91;;;16.00;62.30
65718;BME280;52445;52.466;-1.016;2022-08-21T02:02:15;100021.03;;;16.00;62.47
65718;BME280;52445;52.466;-1.016;2022-08-21T02:04:42;100021.97;;;15.97;62.44
65718;BME280;52445;52.466;-1.016;2022-08-21T02:07:10;100029.84;;;15.96;62.22
65718;BME280;52445;52.466;-1.016;2022-08-21T02:09:37;100021.19;;;15.93;62.10
65718;BME280;52445;52.466;-1.016;2022-08-21T02:12:05;100028.19;;;15.91;62.49
65718;BME280;52445;52.466;-1.016;2022-08-21T02:14:32;100029.13;;;15.89;62.37
65718;BME280;52445;52.466;-1.016;2022-08-21T02:16:59;100023.03;;;15.88;62.58
65718;BME280;52445;52.466;-1.016;2022-08-21T02:19:35;100028.88;;;15.63;62.81
65718;BME280;52445;52.466;-1.016;2022-08-21T02:22:08;100029.41;;;15.78;62.63
65718;BME280;52445;52.466;-1.016;2022-08-21T02:24:36;100030.22;;;15.80;62.81
65718;BME280;52445;52.466;-1.016;2022-08-21T02:27:21;100021.56;;;15.78;62.72
65718;BME280;52445;52.466;-1.016;2022-08-21T02:29:53;100025.09;;;15.77;63.22
65718;BME280;52445;52.466;-1.016;2022-08-21T02:32:20;100029.47;;;15.75;63.25
65718;BME280;52445;52.466;-1.016;2022-08-21T02:34:47;100025.16;;;15.74;63.48
65718;BME280;52445;52.466;-1.016;2022-08-21T02:37:15;100028.63;;;15.73;63.11
65718;BME280;52445;52.466;-1.016;2022-08-21T02:39:42;100023.41;;;15.73;63.33
65718;BME280;52445;52.466;-1.016;2022-08-21T02:42:08;100021.72;;;15.72;63.59
65718;BME280;52445;52.466;-1.016;2022-08-21T02:44:35;100015.66;;;15.71;63.51
65718;BME280;52445;52.466;-1.016;2022-08-21T02:47:02;100024.34;;;15.70;63.13
65718;BME280;52445;52.466;-1.016;2022-08-21T02:49:28;100027.88;;;15.69;64.07
65718;BME280;52445;52.466;-1.016;2022-08-21T02:51:55;100027.00;;;15.68;63.92
65718;BME280;52445;52.466;-1.016;2022-08-21T02:54:21;100007.94;;;15.66;63.86
65718;BME280;52445;52.466;-1.016;2022-08-21T02:56:48;100019.31;;;15.64;64.14
65718;BME280;52445;52.466;-1.016;2022-08-21T02:59:15;100023.66;;;15.63;64.40
65718;BME280;52445;52.466;-1.016;2022-08-21T03:01:41;100021.03;;;15.63;64.46
65718;BME280;52445;52.466;-1.016;2022-08-21T03:04:08;100017.66;;;15.60;64.18
65718;BME280;52445;52.466;-1.016;2022-08-21T03:06:35;100014.19;;;15.59;64.47
65718;BME280;52445;52.466;-1.016;2022-08-21T03:09:02;100019.41;;;15.59;64.59
65718;BME280;52445;52.466;-1.016;2022-08-21T03:11:29;100009.94;;;15.55;64.58
65718;BME280;52445;52.466;-1.016;2022-08-21T03:13:56;100013.44;;;15.54;64.56
65718;BME280;52445;52.466;-1.016;2022-08-21T03:16:22;100010.00;;;15.52;65.05
65718;BME280;52445;52.466;-1.016;2022-08-21T03:18:49;100010.91;;;15.51;64.87
65718;BME280;52445;52.466;-1.016;2022-08-21T03:21:16;100017.91;;;15.49;64.83
65718;BME280;52445;52.466;-1.016;2022-08-21T03:23:45;100006.66;;;15.47;65.15
65718;BME280;52445;52.466;-1.016;2022-08-21T03:26:13;100011.03;;;15.45;65.48
65718;BME280;52445;52.466;-1.016;2022-08-21T03:28:41;99999.78;;;15.42;65.38
65718;BME280;52445;52.466;-1.016;2022-08-21T03:31:08;100006.78;;;15.40;65.05
65718;BME280;52445;52.466;-1.016;2022-08-21T03:33:35;99998.16;;;15.38;65.21
65718;BME280;52445;52.466;-1.016;2022-08-21T03:36:05;99999.94;;;15.36;65.55
65718;BME280;52445;52.466;-1.016;2022-08-21T03:38:34;100001.63;;;15.37;65.15
65718;BME280;52445;52.466;-1.016;2022-08-21T03:41:02;99998.22;;;15.35;65.18
65718;BME280;52445;52.466;-1.016;2022-08-21T03:43:30;99998.28;;;15.32;65.47
65718;BME280;52445;52.466;-1.016;2022-08-21T03:46:00;99997.41;;;15.32;65.68
65718;BME280;52445;52.466;-1.016;2022-08-21T03:48:27;99997.44;;;15.30;65.80
65718;BME280;52445;52.466;-1.016;2022-08-21T03:50:53;100002.72;;;15.28;65.86
65718;BME280;52445;52.466;-1.016;2022-08-21T03:53:20;99996.66;;;15.28;65.48
65718;BME280;52445;52.466;-1.016;2022-08-21T03:55:49;99997.53;;;15.27;65.67
65718;BME280;52445;52.466;-1.016;2022-08-21T03:58:20;99994.97;;;15.25;65.83
65718;BME280;52445;52.466;-1.016;2022-08-21T04:00:50;99988.88;;;15.25;65.96
65718;BME280;52445;52.466;-1.016;2022-08-21T04:03:18;99995.00;;;15.24;65.91
65718;BME280;52445;52.466;-1.016;2022-08-21T04:05:46;99993.28;;;15.23;65.99
65718;BME280;52445;52.466;-1.016;2022-08-21T04:08:14;99995.91;;;15.23;65.67
65718;BME280;52445;52.466;-1.016;2022-08-21T04:10:43;99994.13;;;15.23;66.56
65718;BME280;52445;52.466;-1.016;2022-08-21T04:13:10;99997.63;;;15.22;66.06
65718;BME280;52445;52.466;-1.016;2022-08-21T04:15:37;99998.50;;;15.23;66.35
65718;BME280;52445;52.466;-1.016;2022-08-21T04:18:04;99991.56;;;15.22;66.33
65718;BME280;52445;52.466;-1.016;2022-08-21T04:20:32;99991.56;;;15.22;66.52
65718;BME280;52445;52.466;-1.016;2022-08-21T04:22:59;99985.50;;;15.21;66.79
65718;BME280;52445;52.466;-1.016;2022-08-21T04:25:26;99983.75;;;15.20;66.74
65718;BME280;52445;52.466;-1.016;2022-08-21T04:27:53;99991.56;;;15.22;66.27
65718;BME280;52445;52.466;-1.016;2022-08-21T04:30:20;99995.91;;;15.23;66.09
65718;BME280;52445;52.466;-1.016;2022-08-21T04:32:54;100001.03;;;15.26;66.23
65718;BME280;52445;52.466;-1.016;2022-08-21T04:35:22;100003.63;;;15.26;66.63
65718;BME280;52445;52.466;-1.016;2022-08-21T04:37:49;100006.25;;;15.26;66.85
65718;BME280;52445;52.466;-1.016;2022-08-21T04:40:18;99999.28;;;15.26;66.83
65718;BME280;52445;52.466;-1.016;2022-08-21T04:45:28;100005.34;;;15.28;66.74
65718;BME280;52445;52.466;-1.016;2022-08-21T04:47:58;100011.41;;;15.29;66.78
65718;BME280;52445;52.466;-1.016;2022-08-21T04:50:31;100009.66;;;15.29;66.70
65718;BME280;52445;52.466;-1.016;2022-08-21T04:53:00;100009.63;;;15.31;67.01
65718;BME280;52445;52.466;-1.016;2022-08-21T04:55:27;100013.94;;;15.32;66.95
65718;BME280;52445;52.466;-1.016;2022-08-21T04:57:55;100010.44;;;15.33;67.17
65718;BME280;52445;52.466;-1.016;2022-08-21T05:00:24;100010.44;;;15.33;67.53
65718;BME280;52445;52.466;-1.016;2022-08-21T05:02:53;100017.38;;;15.34;67.36
65718;BME280;52445;52.466;-1.016;2022-08-21T05:05:23;100017.38;;;15.34;67.42
65718;BME280;52445;52.466;-1.016;2022-08-21T05:07:49;100023.41;;;15.36;67.00
65718;BME280;52445;52.466;-1.016;2022-08-21T05:10:17;100027.72;;;15.37;67.36
65718;BME280;52445;52.466;-1.016;2022-08-21T05:12:44;100025.09;;;15.39;67.51
65718;BME280;52445;52.466;-1.016;2022-08-21T05:15:11;100037.25;;;15.40;67.30
65718;BME280;52445;52.466;-1.016;2022-08-21T05:17:40;100039.81;;;15.41;67.49
65718;BME280;52445;52.466;-1.016;2022-08-21T05:20:08;100038.03;;;15.44;67.53
65718;BME280;52445;52.466;-1.016;2022-08-21T05:22:35;100044.97;;;15.45;67.45
65718;BME280;52445;52.466;-1.016;2022-08-21T05:25:03;100037.97;;;15.47;67.14
65718;BME280;52445;52.466;-1.016;2022-08-21T05:27:36;100047.44;;;15.51;67.03
65718;BME280;52445;52.466;-1.016;2022-08-21T05:30:06;100044.78;;;15.54;67.48
65718;BME280;52445;52.466;-1.016;2022-08-21T05:32:34;100048.19;;;15.56;67.40
65718;BME280;52445;52.466;-1.016;2022-08-21T05:35:03;100043.81;;;15.58;67.51
65718;BME280;52445;52.466;-1.016;2022-08-21T05:37:30;100049.81;;;15.60;67.82
65718;BME280;52445;52.466;-1.016;2022-08-21T05:39:57;100051.56;;;15.61;67.55
65718;BME280;52445;52.466;-1.016;2022-08-21T05:42:45;100049.75;;;15.63;67.44
65718;BME280;52445;52.466;-1.016;2022-08-21T05:45:22;100053.22;;;15.65;67.31
65718;BME280;52445;52.466;-1.016;2022-08-21T05:48:12;100058.34;;;15.68;67.36
65718;BME280;52445;52.466;-1.016;2022-08-21T05:50:39;100058.25;;;15.72;67.64
65718;BME280;52445;52.466;-1.016;2022-08-21T05:53:07;100052.97;;;15.75;67.33
65718;BME280;52445;52.466;-1.016;2022-08-21T05:55:36;100058.13;;;15.78;67.46
65718;BME280;52445;52.466;-1.016;2022-08-21T05:58:13;100066.78;;;15.80;66.98
65718;BME280;52445;52.466;-1.016;2022-08-21T06:00:40;100063.28;;;15.81;67.77
65718;BME280;52445;52.466;-1.016;2022-08-21T06:03:29;100065.78;;;15.84;67.71
65718;BME280;52445;52.466;-1.016;2022-08-21T06:05:57;100062.22;;;15.88;67.19
65718;BME280;52445;52.466;-1.016;2022-08-21T06:08:25;100057.81;;;15.90;67.88
65718;BME280;52445;52.466;-1.016;2022-08-21T06:10:53;100069.03;;;15.94;66.58
65718;BME280;52445;52.466;-1.016;2022-08-21T06:13:21;100062.06;;;15.96;67.11
65718;BME280;52445;52.466;-1.016;2022-08-21T06:15:49;100059.41;;;15.98;67.53
65718;BME280;52445;52.466;-1.016;2022-08-21T06:18:16;100065.56;;;15.97;66.99
65718;BME280;52445;52.466;-1.016;2022-08-21T06:20:43;100067.22;;;15.99;66.88
65718;BME280;52445;52.466;-1.016;2022-08-21T06:23:10;100074.91;;;16.04;67.37
65718;BME280;52445;52.466;-1.016;2022-08-21T06:25:37;100073.91;;;16.10;67.70
65718;BME280;52445;52.466;-1.016;2022-08-21T06:28:08;100082.38;;;16.19;67.61
65718;BME280;52445;52.466;-1.016;2022-08-21T06:30:36;100081.31;;;16.27;67.79
65718;BME280;52445;52.466;-1.016;2022-08-21T06:33:04;100075.78;;;16.39;67.87
65718;BME280;52445;52.466;-1.016;2022-08-21T06:35:31;100074.59;;;16.51;66.98
65718;BME280;52445;52.466;-1.016;2022-08-21T06:37:58;100078.56;;;16.66;67.71
65718;BME280;52445;52.466;-1.016;2022-08-21T06:40:26;100072.03;;;16.81;67.57
65718;BME280;52445;52.466;-1.016;2022-08-21T06:42:56;100074.16;;;16.99;67.25
65718;BME280;52445;52.466;-1.016;2022-08-21T06:45:24;100069.56;;;17.08;67.06
65718;BME280;52445;52.466;-1.016;2022-08-21T06:47:53;100064.03;;;17.18;66.99
65718;BME280;52445;52.466;-1.016;2022-08-21T06:50:20;100055.09;;;17.25;66.85
65718;BME280;52445;52.466;-1.016;2022-08-21T06:52:46;100059.28;;;17.31;66.38
65718;BME280;52445;52.466;-1.016;2022-08-21T06:55:13;100053.06;;;17.35;66.34
65718;BME280;52445;52.466;-1.016;2022-08-21T06:57:48;100049.38;;;17.41;66.94
65718;BME280;52445;52.466;-1.016;2022-08-21T07:00:18;100043.09;;;17.46;66.41
65718;BME280;52445;52.466;-1.016;2022-08-21T07:02:45;100042.03;;;17.52;66.43
65718;BME280;52445;52.466;-1.016;2022-08-21T07:05:11;100046.22;;;17.58;65.98
65718;BME280;52445;52.466;-1.016;2022-08-21T07:07:44;100042.22;;;17.75;66.63
65718;BME280;52445;52.466;-1.016;2022-08-21T07:10:12;100049.94;;;18.32;66.50
65718;BME280;52445;52.466;-1.016;2022-08-21T07:12:48;100053.94;;;18.92;65.57
65718;BME280;52445;52.466;-1.016;2022-08-21T07:15:16;100051.69;;;19.29;64.54
65718;BME280;52445;52.466;-1.016;2022-08-21T07:17:43;100045.81;;;19.67;63.89
65718;BME280;52445;52.466;-1.016;2022-08-21T07:20:10;100053.88;;;19.84;63.34
65718;BME280;52445;52.466;-1.016;2022-08-21T07:22:39;100057.13;;;20.12;63.11
65718;BME280;52445;52.466;-1.016;2022-08-21T07:25:07;100057.06;;;20.74;62.31
65718;BME280;52445;52.466;-1.016;2022-08-21T07:27:34;100052.13;;;21.26;61.93
65718;BME280;52445;52.466;-1.016;2022-08-21T07:30:00;100059.94;;;21.83;60.86
65718;BME280;52445;52.466;-1.016;2022-08-21T07:32:27;100064.00;;;22.42;59.63
65718;BME280;52445;52.466;-1.016;2022-08-21T07:34:54;100056.50;;;23.02;58.52
65718;BME280;52445;52.466;-1.016;2022-08-21T07:37:20;100057.69;;;23.45;57.21
65718;BME280;52445;52.466;-1.016;2022-08-21T07:39:47;100057.63;;;23.77;56.83
65718;BME280;52445;52.466;-1.016;2022-08-21T07:42:15;100050.22;;;23.98;55.80
65718;BME280;52445;52.466;-1.016;2022-08-21T07:44:42;100054.41;;;24.33;55.63
65718;BME280;52445;52.466;-1.016;2022-08-21T07:47:09;100055.91;;;24.67;54.50
65718;BME280;52445;52.466;-1.016;2022-08-21T07:49:36;100057.59;;;24.97;53.41
65718;BME280;52445;52.466;-1.016;2022-08-21T07:52:03;100059.44;;;25.24;53.03
65718;BME280;52445;52.466;-1.016;2022-08-21T07:54:29;100061.25;;;25.51;52.60
65718;BME280;52445;52.466;-1.016;2022-08-21T07:57:00;100067.13;;;25.97;52.31
65718;BME280;52445;52.466;-1.016;2022-08-21T07:59:27;100060.16;;;26.35;51.12
65718;BME280;52445;52.466;-1.016;2022-08-21T08:01:53;100053.31;;;26.69;50.13
65718;BME280;52445;52.466;-1.016;2022-08-21T08:04:20;100058.19;;;27.02;49.78
65718;BME280;52445;52.466;-1.016;2022-08-21T08:06:51;100062.19;;;27.20;48.44
65718;BME280;52445;52.466;-1.016;2022-08-21T08:09:18;100066.13;;;27.39;47.68
65718;BME280;52445;52.466;-1.016;2022-08-21T08:11:45;100067.53;;;27.56;47.01
65718;BME280;52445;52.466;-1.016;2022-08-21T08:14:11;100068.13;;;27.73;46.51
65718;BME280;52445;52.466;-1.016;2022-08-21T08:16:38;100078.53;;;27.76;46.05
65718;BME280;52445;52.466;-1.016;2022-08-21T08:19:05;100067.16;;;27.74;45.64
65718;BME280;52445;52.466;-1.016;2022-08-21T08:21:32;100072.38;;;27.76;45.40
65718;BME280;52445;52.466;-1.016;2022-08-21T08:24:00;100077.47;;;27.79;44.18
65718;BME280;52445;52.466;-1.016;2022-08-21T08:26:44;100068.97;;;27.74;44.08
65718;BME280;52445;52.466;-1.016;2022-08-21T08:29:19;100074.78;;;27.67;44.37
65718;BME280;52445;52.466;-1.016;2022-08-21T08:31:45;100072.16;;;27.79;44.69
65718;BME280;52445;52.466;-1.016;2022-08-21T08:34:12;100069.91;;;27.97;43.45
65718;BME280;52445;52.466;-1.016;2022-08-21T08:36:51;100084.84;;;28.22;43.15
65718;BME280;52445;52.466;-1.016;2022-08-21T08:39:18;100077.84;;;28.44;43.05
65718;BME280;52445;52.466;-1.016;2022-08-21T08:42:01;100075.31;;;28.66;43.21
65718;BME280;52445;52.466;-1.016;2022-08-21T08:44:56;100083.44;;;28.87;42.40
65718;BME280;52445;52.466;-1.016;2022-08-21T08:47:25;100075.72;;;28.95;41.64
65718;BME280;52445;52.466;-1.016;2022-08-21T08:50:00;100085.88;;;29.02;40.99
65718;BME280;52445;52.466;-1.016;2022-08-21T08:52:33;100085.28;;;28.98;41.83
65718;BME280;52445;52.466;-1.016;2022-08-21T08:57:39;100075.94;;;28.69;40.70
65718;BME280;52445;52.466;-1.016;2022-08-21T09:00:10;100083.69;;;28.61;41.24
65718;BME280;52445;52.466;-1.016;2022-08-21T09:02:38;100082.47;;;28.54;41.66
65718;BME280;52445;52.466;-1.016;2022-08-21T09:05:07;100084.63;;;28.48;41.04
65718;BME280;52445;52.466;-1.016;2022-08-21T09:21:35;100084.09;;;27.11;42.42
65718;BME280;52445;52.466;-1.016;2022-08-21T09:29:41;100092.59;;;27.16;43.08
65718;BME280;52445;52.466;-1.016;2022-08-21T09:32:15;100090.47;;;27.22;42.75
65718;BME280;52445;52.466;-1.016;2022-08-21T09:35:13;100087.22;;;27.29;42.68
65718;BME280;52445;52.466;-1.016;2022-08-21T09:45:49;100082.84;;;28.02;42.67
65718;BME280;52445;52.466;-1.016;2022-08-21T09:48:27;100083.63;;;28.27;41.02
65718;BME280;52445;52.466;-1.016;2022-08-21T09:51:09;100085.38;;;28.39;40.92
65718;BME280;52445;52.466;-1.016;2022-08-21T09:53:39;100074.97;;;28.59;41.02
65718;BME280;52445;52.466;-1.016;2022-08-21T09:56:29;100079.06;;;28.52;39.53
65718;BME280;52445;52.466;-1.016;2022-08-21T10:01:54;100088.72;;;28.18;40.78
65718;BME280;52445;52.466;-1.016;2022-08-21T10:04:27;100083.56;;;28.28;41.22
65718;BME280;52445;52.466;-1.016;2022-08-21T10:06:54;100079.50;;;28.22;40.64
65718;BME280;52445;52.466;-1.016;2022-08-21T10:09:31;100076.19;;;28.07;40.00
65718;BME280;52445;52.466;-1.016;2022-08-21T10:12:12;100082.56;;;28.29;40.85
65718;BME280;52445;52.466;-1.016;2022-08-21T10:20:11;100071.97;;;28.05;38.58
65718;BME280;52445;52.466;-1.016;2022-08-21T10:22:52;100078.63;;;27.75;39.18
65718;BME280;52445;52.466;-1.016;2022-08-21T10:36:48;100079.16;;;27.80;39.93
65718;BME280;52445;52.466;-1.016;2022-08-21T10:49:56;100076.88;;;27.62;39.20
65718;BME280;52445;52.466;-1.016;2022-08-21T11:26:45;100074.13;;;28.58;38.20
65718;BME280;52445;52.466;-1.016;2022-08-21T11:29:38;100079.31;;;28.60;38.34
65718;BME280;52445;52.466;-1.016;2022-08-21T11:49:06;100082.72;;;28.51;38.31
65718;BME280;52445;52.466;-1.016;2022-08-21T11:51:44;100090.22;;;28.34;38.58
65718;BME280;52445;52.466;-1.016;2022-08-21T11:57:02;100082.16;;;28.11;39.24
65718;BME280;52445;52.466;-1.016;2022-08-21T11:59:37;100084.81;;;28.11;39.28
65718;BME280;52445;52.466;-1.016;2022-08-21T12:04:48;100086.97;;;28.17;39.09
65718;BME280;52445;52.466;-1.016;2022-08-21T12:07:29;100082.88;;;28.25;39.16
65718;BME280;52445;52.466;-1.016;2022-08-21T12:09:57;100084.59;;;28.26;39.47
65718;BME280;52445;52.466;-1.016;2022-08-21T12:18:27;100083.97;;;28.22;39.13
65718;BME280;52445;52.466;-1.016;2022-08-21T12:23:59;100082.75;;;28.15;38.70
65718;BME280;52445;52.466;-1.016;2022-08-21T12:26:32;100086.97;;;28.17;38.63
65718;BME280;52445;52.466;-1.016;2022-08-21T12:29:05;100081.91;;;28.14;38.12
65718;BME280;52445;52.466;-1.016;2022-08-21T12:31:32;100072.09;;;28.15;39.33
65718;BME280;52445;52.466;-1.016;2022-08-21T12:34:01;100068.88;;;28.22;38.77
65718;BME280;52445;52.466;-1.016;2022-08-21T12:36:42;100073.22;;;28.23;38.82
65718;BME280;52445;52.466;-1.016;2022-08-21T12:39:19;100077.13;;;28.31;38.72
65718;BME280;52445;52.466;-1.016;2022-08-21T12:42:11;100073.25;;;28.35;38.77
65718;BME280;52445;52.466;-1.016;2022-08-21T12:50:13;100068.91;;;28.45;38.95
65718;BME280;52445;52.466;-1.016;2022-08-21T12:53:04;100068.66;;;28.48;38.13
65718;BME280;52445;52.466;-1.016;2022-08-21T12:55:46;100079.31;;;28.48;38.63
65718;BME280;52445;52.466;-1.016;2022-08-21T12:58:28;100076.41;;;28.40;38.75
65718;BME280;52445;52.466;-1.016;2022-08-21T13:01:01;100068.28;;;28.42;39.33
65718;BME280;52445;52.466;-1.016;2022-08-21T13:03:29;100064.81;;;28.53;38.89
65718;BME280;52445;52.466;-1.016;2022-08-21T13:05:58;100065.63;;;28.65;38.94
65718;BME280;52445;52.466;-1.016;2022-08-21T13:08:26;100067.72;;;28.61;38.44
65718;BME280;52445;52.466;-1.016;2022-08-21T13:11:00;100066.97;;;28.59;37.83
65718;BME280;52445;52.466;-1.016;2022-08-21T13:13:41;100078.13;;;28.64;39.10
65718;BME280;52445;52.466;-1.016;2022-08-21T13:16:20;100066.72;;;28.73;38.27
65718;BME280;52445;52.466;-1.016;2022-08-21T13:18:57;100067.72;;;28.84;39.06
65718;BME280;52445;52.466;-1.016;2022-08-21T13:21:31;100061.63;;;28.82;37.14
65718;BME280;52445;52.466;-1.016;2022-08-21T13:26:56;100065.16;;;28.82;38.83
65718;BME280;52445;52.466;-1.016;2022-08-21T13:29:31;100068.66;;;28.94;38.87
65718;BME280;52445;52.466;-1.016;2022-08-21T13:32:01;100054.97;;;28.99;38.33
65718;BME280;52445;52.466;-1.016;2022-08-21T13:34:31;100064.53;;;29.02;37.43
65718;BME280;52445;52.466;-1.016;2022-08-21T13:37:03;100067.66;;;29.07;37.61
65718;BME280;52445;52.466;-1.016;2022-08-21T13:39:30;100067.66;;;29.07;38.27
65718;BME280;52445;52.466;-1.016;2022-08-21T13:42:00;100064.53;;;29.02;38.36
65718;BME280;52445;52.466;-1.016;2022-08-21T13:47:07;100058.00;;;28.94;37.96
65718;BME280;52445;52.466;-1.016;2022-08-21T13:49:37;100059.44;;;28.98;38.25
65718;BME280;52445;52.466;-1.016;2022-08-21T13:52:14;100052.06;;;29.02;37.96
65718;BME280;52445;52.466;-1.016;2022-08-21T13:54:42;100056.78;;;29.10;38.01
65718;BME280;52445;52.466;-1.016;2022-08-21T13:57:31;100046.63;;;29.04;37.79
65718;BME280;52445;52.466;-1.016;2022-08-21T14:03:00;100054.97;;;29.10;37.89
65718;BME280;52445;52.466;-1.016;2022-08-21T14:05:33;100056.53;;;29.13;37.37
65718;BME280;52445;52.466;-1.016;2022-08-21T14:10:46;100045.19;;;28.99;37.58
65718;BME280;52445;52.466;-1.016;2022-08-21T14:13:43;100045.41;;;28.73;37.73
65718;BME280;52445;52.466;-1.016;2022-08-21T14:16:15;100042.28;;;28.68;37.99
65718;BME280;52445;52.466;-1.016;2022-08-21T14:18:53;100034.28;;;28.57;37.99
65718;BME280;52445;52.466;-1.016;2022-08-21T14:21:28;100037.66;;;28.59;38.50
65718;BME280;52445;52.466;-1.016;2022-08-21T14:24:01;100039.00;;;28.65;37.42
65718;BME280;52445;52.466;-1.016;2022-08-21T14:26:28;100035.25;;;28.67;38.62
65718;BME280;52445;52.466;-1.016;2022-08-21T14:28:58;100034.03;;;28.60;38.03
65718;BME280;52445;52.466;-1.016;2022-08-21T14:31:29;100032.84;;;28.53;38.67
65718;BME280;52445;52.466;-1.016;2022-08-21T14:33:59;100036.09;;;28.45;37.95
65718;BME280;52445;52.466;-1.016;2022-08-21T14:36:25;100035.25;;;28.33;38.38
65718;BME280;52445;52.466;-1.016;2022-08-21T14:38:52;100032.19;;;28.26;38.13
65718;BME280;52445;52.466;-1.016;2022-08-21T14:41:22;100031.13;;;28.29;38.60
65718;BME280;52445;52.466;-1.016;2022-08-21T14:43:50;100028.00;;;28.35;39.38
65718;BME280;52445;52.466;-1.016;2022-08-21T14:46:33;100031.00;;;28.42;38.93
65718;BME280;52445;52.466;-1.016;2022-08-21T14:49:16;100030.19;;;28.53;39.22
65718;BME280;52445;52.466;-1.016;2022-08-21T14:51:43;100034.53;;;28.65;38.82
65718;BME280;52445;52.466;-1.016;2022-08-21T14:54:19;100035.25;;;28.67;38.72
65718;BME280;52445;52.466;-1.016;2022-08-21T14:56:53;100032.84;;;28.64;38.43
65718;BME280;52445;52.466;-1.016;2022-08-21T14:59:21;100034.78;;;28.62;38.21
65718;BME280;52445;52.466;-1.016;2022-08-21T15:01:47;100027.00;;;28.59;38.87
65718;BME280;52445;52.466;-1.016;2022-08-21T15:04:15;100037.44;;;28.62;38.01
65718;BME280;52445;52.466;-1.016;2022-08-21T15:06:42;100036.22;;;28.66;38.57
65718;BME280;52445;52.466;-1.016;2022-08-21T15:09:08;100034.03;;;28.71;38.38
65718;BME280;52445;52.466;-1.016;2022-08-21T15:11:35;100025.53;;;28.78;38.40
65718;BME280;52445;52.466;-1.016;2022-08-21T15:14:11;100027.47;;;28.87;38.22
65718;BME280;52445;52.466;-1.016;2022-08-21T15:16:39;100026.50;;;28.88;37.68
65718;BME280;52445;52.466;-1.016;2022-08-21T15:19:05;100021.19;;;28.88;37.98
65718;BME280;52445;52.466;-1.016;2022-08-21T15:21:32;100020.94;;;28.91;37.99